Last 24 Hour KALB Observations

Last 24 hours of surface weather observations from the Albany County Airport. Observations taken by the National Weather Service.


		
KALB 261051Z 27007KT 10SM CLR M11/M17 A3027 RMK AO2 SLP254 T11061172 $=
KALB 261151Z 27007KT 10SM CLR M12/M18 A3029 RMK AO2 SLP264 4/003 T11171178
 11078 21117 53020 $=
KALB 261251Z 30005KT 10SM FEW030 M12/M18 A3032 RMK AO2 SLP274 T11221183 $=
KALB 261351Z 28009KT 10SM CLR M11/M18 A3035 RMK AO2 SLP282 T11111178 $=
KALB 261451Z 29012G20KT 10SM FEW030 M11/M18 A3037 RMK AO2 SLP289 T11061183
 51025 $=
KALB 261551Z 31013G16KT 10SM FEW035 M09/M18 A3038 RMK AO2 SLP293 T10941183 $=
KALB 261651Z 31011KT 10SM FEW040 M09/M18 A3037 RMK AO2 SLP289 T10891178 $=
KALB 261751Z 28011KT 10SM FEW040 M08/M18 A3035 RMK AO2 SLP282 4/003 933005
 T10781178 11078 21128 58007 $=
KALB 261851Z 31011KT 10SM FEW045 FEW060 M07/M18 A3034 RMK AO2 SLP279 T10671183
 $=
KALB 261951Z 29009KT 10SM FEW045 FEW060 M06/M18 A3034 RMK AO2 SLP281 T10611183
 $=
KALB 262051Z 28014KT 10SM FEW045 M07/M18 A3035 RMK AO2 SLP284 T10721183 53002 $=
KALB 262151Z 27010KT 10SM FEW040 M08/M18 A3038 RMK AO2 SLP293 T10831183 $=
KALB 262251Z 28011G19KT 10SM CLR M09/M18 A3041 RMK AO2 SLP303 T10941183 $=
KALB 262351Z 31008KT 10SM CLR M11/M19 A3044 RMK AO2 SLP313 4/002 T11061189
 11061 21106 53027 $=
KALB 270051Z 31006KT 10SM CLR M12/M19 A3046 RMK AO2 SLP320 T11171189 $=
KALB 270051Z 31006KT 10SM CLR M12/M19 A3046 RMK AO2 SLP320 T11171189 /=
KALB 270151Z 05006KT 10SM CLR M13/M19 A3046 RMK AO2 SLP322 T11331194 $=
KALB 270251Z 33004KT 10SM CLR M14/M21 A3047 RMK AO2 SLP323 T11391206 51010 $=
KALB 270351Z 36003KT 10SM CLR M15/M21 A3048 RMK AO2 SLP327 T11501206 $=
KALB 270451Z 34004KT 10SM CLR M17/M21 A3048 RMK AO2 SLP328 T11671211 410611167
 $=
KALB 270551Z 32005KT 10SM CLR M17/M22 A3047 RMK AO2 SLP325 4/002 T11721217
 11100 21172 50002 $=
KALB 270651Z 30003KT 10SM CLR M18/M22 A3047 RMK AO2 SLP325 T11781217 $=
KALB 270751Z 00000KT 10SM CLR M18/M22 A3047 RMK AO2 SLP325 T11831222 $=
KALB 270851Z 18003KT 10SM CLR M20/M23 A3046 RMK AO2 SLP320 T12001228 58005 $=
KALB 270951Z 00000KT 10SM CLR M19/M22 A3046 RMK AO2 SLP322 T11941222 $=
KALB 271051Z 00000KT 10SM CLR M20/M22 A3046 RMK AO2 SLP322 T12001222 $=